Terminal Aerodrome Forecast
Issued by NWS Flagstaff, AZ

Home | Current Version | Previous Version | Text Only | Print | Product List | Glossary On
Versions: 1 2 3 4 5 6 7 8 9 10 11 12 13
313
FTUS45 KFGZ 052341
TAFINW
TAF
KINW 052341Z 0600/0624 18020G30KT P6SM SCT250
     FM060300 17010KT P6SM SCT250
     FM061400 18016G28KT P6SM SCT250
     FM061800 19022G32KT P6SM FEW120 SCT200=

USA.gov is the U.S. government's official web portal to all federal, state and local government web resources and services.